Time;durP1;ratioP1;P1;durP2;ratioP2;P2;SDS_P1;SDS_P2;PMS_P1;PMS_P2;Temp;Humidity;BMP_temperature;BMP_pressure;BME280_temperature;BME280_humidity;BME280_pressure;Samples;Min_cycle;Max_cycle;Signal;HPM_P1;HPM_P2
2023/11/28 00:02:10;;;;;;;0.30;0.20;;;3.00;99.90;;;;;;5034847;28;20450;-79
2023/11/28 00:04:37;;;;;;;0.30;0.20;;;3.10;99.90;;;;;;5034607;28;20438;-79
2023/11/28 00:07:04;;;;;;;0.30;0.20;;;3.10;99.90;;;;;;5034925;28;20444;-79
2023/11/28 00:09:32;;;;;;;0.30;0.20;;;3.00;99.90;;;;;;5034505;28;20493;-79
2023/11/28 00:11:59;;;;;;;0.30;0.20;;;3.00;99.90;;;;;;5034039;28;20915;-79
2023/11/28 00:14:25;;;;;;;0.30;0.30;;;2.80;99.90;;;;;;5035143;28;20442;-79
2023/11/28 00:16:52;;;;;;;0.30;0.30;;;2.90;99.90;;;;;;5034139;28;20504;-78
2023/11/28 00:19:19;;;;;;;0.30;0.20;;;2.90;99.90;;;;;;5035660;28;20465;-78
2023/11/28 00:21:46;;;;;;;0.30;0.20;;;2.90;99.90;;;;;;5034036;28;20446;-78
2023/11/28 00:24:12;;;;;;;0.40;0.30;;;2.80;99.90;;;;;;5034256;28;20449;-79
2023/11/28 00:26:41;;;;;;;0.30;0.20;;;2.80;99.90;;;;;;5034906;28;20438;-77
2023/11/28 00:29:08;;;;;;;0.30;0.30;;;2.90;99.90;;;;;;5033924;28;20486;-78
2023/11/28 00:31:35;;;;;;;0.50;0.30;;;2.90;99.90;;;;;;5034000;28;20566;-79
2023/11/28 00:34:02;;;;;;;0.30;0.27;;;2.90;99.90;;;;;;5033228;28;20450;-79
2023/11/28 00:36:28;;;;;;;0.30;0.30;;;2.80;99.90;;;;;;5033879;28;20886;-78
2023/11/28 00:38:55;;;;;;;0.30;0.30;;;2.80;99.90;;;;;;5034351;28;20451;-78
2023/11/28 00:41:24;;;;;;;0.30;0.20;;;2.80;99.90;;;;;;5036367;28;20777;-78
2023/11/28 00:43:52;;;;;;;0.30;0.20;;;2.90;99.90;;;;;;5036095;28;20454;-78
2023/11/28 00:46:19;;;;;;;0.30;0.30;;;2.80;99.90;;;;;;5036131;28;20846;-79
2023/11/28 00:48:46;;;;;;;0.30;0.20;;;2.80;99.90;;;;;;5034907;28;20490;-78
2023/11/28 00:51:14;;;;;;;1.17;0.30;;;2.90;99.90;;;;;;5034018;28;20450;-79
2023/11/28 00:53:41;;;;;;;0.33;0.27;;;2.80;99.90;;;;;;5034745;28;20802;-79
2023/11/28 00:56:09;;;;;;;0.30;0.20;;;2.90;99.90;;;;;;5033585;28;20442;-79
2023/11/28 00:58:36;;;;;;;0.30;0.20;;;2.90;99.90;;;;;;5034882;28;20492;-79
2023/11/28 01:01:05;;;;;;;0.30;0.20;;;2.90;99.90;;;;;;5034916;28;20477;-79
2023/11/28 01:03:31;;;;;;;0.30;0.20;;;2.90;99.90;;;;;;5034408;28;20533;-79
2023/11/28 01:05:58;;;;;;;0.30;0.30;;;2.90;99.90;;;;;;5034806;28;20447;-79
2023/11/28 01:08:27;;;;;;;0.30;0.20;;;2.90;99.90;;;;;;5033766;28;20485;-79
2023/11/28 01:10:54;;;;;;;0.50;0.30;;;2.90;99.90;;;;;;5034140;28;20463;-80
2023/11/28 01:13:21;;;;;;;0.77;0.30;;;2.90;99.90;;;;;;5034500;28;20447;-79
2023/11/28 01:15:48;;;;;;;0.30;0.20;;;2.90;99.90;;;;;;5035058;28;20899;-80
2023/11/28 01:18:16;;;;;;;0.30;0.30;;;2.90;99.90;;;;;;5035414;28;20442;-80
2023/11/28 01:20:44;;;;;;;0.30;0.20;;;2.90;99.90;;;;;;5035307;28;20462;-79
2023/11/28 01:23:10;;;;;;;0.30;0.30;;;3.00;99.90;;;;;;5034637;28;20446;-79
2023/11/28 01:25:37;;;;;;;0.30;0.20;;;3.00;99.90;;;;;;5034327;28;20793;-79
2023/11/28 01:28:05;;;;;;;0.50;0.37;;;3.00;99.90;;;;;;5033861;28;20504;-80
2023/11/28 01:30:31;;;;;;;0.30;0.20;;;3.00;99.90;;;;;;5034094;28;20473;-80
2023/11/28 01:32:58;;;;;;;0.30;0.30;;;3.00;99.90;;;;;;5035565;28;20450;-80
2023/11/28 01:35:26;;;;;;;0.30;0.30;;;3.10;99.90;;;;;;5033766;28;20824;-79
2023/11/28 01:37:53;;;;;;;0.30;0.20;;;3.20;99.90;;;;;;5033467;28;20818;-79
2023/11/28 01:40:20;;;;;;;0.30;0.30;;;3.10;99.90;;;;;;5082345;22;20489;-78
2023/11/28 01:42:46;;;;;;;0.30;0.30;;;3.10;99.90;;;;;;5033108;28;20450;-78
2023/11/28 01:45:13;;;;;;;0.30;0.30;;;3.10;99.90;;;;;;5034742;28;20448;-79
2023/11/28 01:47:41;;;;;;;0.30;0.20;;;3.10;99.90;;;;;;5036726;28;20438;-79
2023/11/28 01:50:09;;;;;;;0.30;0.30;;;3.00;99.90;;;;;;5036652;28;20485;-79
2023/11/28 01:52:37;;;;;;;0.30;0.30;;;3.00;99.90;;;;;;5036830;28;20446;-79
2023/11/28 01:55:05;;;;;;;0.30;0.30;;;3.10;99.90;;;;;;5036495;28;20442;-79
2023/11/28 01:57:33;;;;;;;0.30;0.30;;;3.10;99.90;;;;;;5036330;28;20962;-79
2023/11/28 02:00:03;;;;;;;0.70;0.37;;;3.10;99.90;;;;;;5036308;28;20445;-79
2023/11/28 02:02:32;;;;;;;0.30;0.30;;;3.10;99.90;;;;;;5036452;28;20435;-79
2023/11/28 02:04:58;;;;;;;0.30;0.30;;;3.10;99.90;;;;;;5036338;28;20449;-79
2023/11/28 02:07:25;;;;;;;0.30;0.30;;;3.10;99.90;;;;;;5036368;28;20451;-79
2023/11/28 02:09:54;;;;;;;0.30;0.30;;;3.00;99.90;;;;;;5036135;28;20485;-79
2023/11/28 02:12:21;;;;;;;0.40;0.30;;;3.10;99.90;;;;;;5036374;28;20451;-79
2023/11/28 02:14:48;;;;;;;1.23;0.30;;;3.10;99.90;;;;;;5037192;28;20450;-79
2023/11/28 02:17:16;;;;;;;0.30;0.20;;;3.20;99.90;;;;;;5036531;28;20446;-79
2023/11/28 02:19:43;;;;;;;0.30;0.27;;;3.20;99.90;;;;;;5037036;28;20504;-79
2023/11/28 02:22:11;;;;;;;0.30;0.30;;;3.30;99.90;;;;;;5036142;28;20517;-79
2023/11/28 02:24:41;;;;;;;0.30;0.23;;;3.40;99.90;;;;;;5036043;28;20454;-79
2023/11/28 02:27:09;;;;;;;0.30;0.30;;;3.40;99.90;;;;;;5036109;28;20431;-79
2023/11/28 02:29:36;;;;;;;0.30;0.20;;;3.40;99.90;;;;;;5035987;28;20493;-79
2023/11/28 02:32:02;;;;;;;0.30;0.30;;;3.50;99.90;;;;;;5035984;28;20465;-79
2023/11/28 02:34:29;;;;;;;1.13;0.50;;;3.50;99.90;;;;;;5035729;28;20442;-79
2023/11/28 02:36:56;;;;;;;0.40;0.30;;;3.50;99.90;;;;;;5035588;28;20446;-79
2023/11/28 02:39:25;;;;;;;0.30;0.30;;;3.50;99.90;;;;;;5035785;28;20449;-79
2023/11/28 02:41:52;;;;;;;0.30;0.30;;;3.60;99.90;;;;;;5035179;28;20489;-79
2023/11/28 02:44:20;;;;;;;0.30;0.30;;;3.60;99.90;;;;;;5035804;28;20500;-79
2023/11/28 02:46:47;;;;;;;1.07;0.30;;;3.60;99.90;;;;;;5035680;28;20443;-79
2023/11/28 02:49:13;;;;;;;0.30;0.20;;;3.60;99.90;;;;;;5035548;28;20497;-79
2023/11/28 02:51:40;;;;;;;1.10;0.40;;;3.70;99.90;;;;;;5035565;28;20470;-79
2023/11/28 02:54:07;;;;;;;0.30;0.30;;;3.70;99.90;;;;;;5035485;28;20469;-79
2023/11/28 02:56:34;;;;;;;0.30;0.30;;;3.70;99.90;;;;;;5034849;28;20450;-79
2023/11/28 02:59:01;;;;;;;0.30;0.20;;;3.70;99.90;;;;;;5035460;28;20445;-79
2023/11/28 03:01:29;;;;;;;0.30;0.20;;;3.70;99.90;;;;;;5035258;28;20967;-79
2023/11/28 03:03:56;;;;;;;0.30;0.20;;;3.70;99.90;;;;;;5035518;28;20478;-79
2023/11/28 03:06:22;;;;;;;1.00;0.40;;;3.70;99.90;;;;;;5035337;28;20489;-79
2023/11/28 03:08:49;;;;;;;0.30;0.30;;;3.70;99.90;;;;;;5035318;28;20443;-79
2023/11/28 03:11:16;;;;;;;0.30;0.30;;;3.80;99.90;;;;;;5034831;28;20467;-79
2023/11/28 03:13:43;;;;;;;0.30;0.30;;;3.70;99.90;;;;;;5035278;28;20445;-79
2023/11/28 03:16:11;;;;;;;0.30;0.30;;;3.70;99.90;;;;;;5035224;28;20447;-79
2023/11/28 03:18:39;;;;;;;0.30;0.20;;;3.70;99.90;;;;;;5035727;28;20947;-79
2023/11/28 03:21:06;;;;;;;0.30;0.20;;;3.70;99.90;;;;;;5034718;28;20470;-79
2023/11/28 03:23:33;;;;;;;0.60;0.57;;;3.70;99.90;;;;;;5034924;28;20447;-79
2023/11/28 03:26:00;;;;;;;0.30;0.20;;;3.70;99.90;;;;;;5035050;28;20447;-79
2023/11/28 03:28:26;;;;;;;0.30;0.20;;;3.70;99.90;;;;;;5034935;28;20442;-79
2023/11/28 03:30:53;;;;;;;0.30;0.30;;;3.70;99.90;;;;;;5034608;28;20486;-79
2023/11/28 03:33:20;;;;;;;0.30;0.20;;;3.70;99.90;;;;;;5034608;28;20450;-79
2023/11/28 03:35:48;;;;;;;0.30;0.20;;;3.70;99.90;;;;;;5034511;28;20489;-79
2023/11/28 03:38:14;;;;;;;0.30;0.20;;;3.70;99.90;;;;;;5034803;28;20446;-79
2023/11/28 03:40:41;;;;;;;0.30;0.20;;;3.70;99.90;;;;;;5034464;28;20474;-79
2023/11/28 03:43:08;;;;;;;0.30;0.30;;;3.70;99.90;;;;;;5034395;28;20947;-79
2023/11/28 03:45:35;;;;;;;0.30;0.30;;;3.70;99.90;;;;;;5034741;28;20446;-79
2023/11/28 03:48:02;;;;;;;0.40;0.30;;;3.60;99.90;;;;;;5034257;28;20447;-79
2023/11/28 03:50:29;;;;;;;0.30;0.27;;;3.70;99.90;;;;;;5034439;28;20864;-79
2023/11/28 03:52:57;;;;;;;0.30;0.30;;;3.60;99.90;;;;;;5034316;28;20954;-79
2023/11/28 03:55:24;;;;;;;0.30;0.20;;;3.50;99.90;;;;;;5034412;28;20439;-79
2023/11/28 03:57:51;;;;;;;0.30;0.30;;;3.60;99.90;;;;;;5034488;28;20435;-79
2023/11/28 04:00:18;;;;;;;0.30;0.30;;;3.60;99.90;;;;;;5033961;28;20466;-79
2023/11/28 04:02:45;;;;;;;0.30;0.30;;;3.60;99.90;;;;;;5034342;28;20446;-79
2023/11/28 04:05:12;;;;;;;0.30;0.20;;;3.70;99.90;;;;;;5034237;28;20533;-79
2023/11/28 04:07:39;;;;;;;0.30;0.23;;;3.60;99.90;;;;;;5033543;28;20927;-79
2023/11/28 04:10:08;;;;;;;0.30;0.20;;;3.60;99.90;;;;;;5033505;28;20482;-79
2023/11/28 04:12:35;;;;;;;0.30;0.20;;;3.60;99.90;;;;;;5034081;28;20446;-79
2023/11/28 04:15:02;;;;;;;0.30;0.20;;;3.60;99.90;;;;;;5034253;28;20465;-79
2023/11/28 04:17:29;;;;;;;0.30;0.30;;;3.60;99.90;;;;;;5033703;28;20951;-79
2023/11/28 04:19:56;;;;;;;0.40;0.30;;;3.60;99.90;;;;;;5033834;28;20443;-79
2023/11/28 04:22:23;;;;;;;0.30;0.20;;;3.60;99.90;;;;;;5033747;28;20442;-79
2023/11/28 04:24:49;;;;;;;0.30;0.30;;;3.70;99.90;;;;;;5033854;28;20811;-79
2023/11/28 04:27:18;;;;;;;0.30;0.30;;;3.70;99.90;;;;;;5035669;28;20451;-79
2023/11/28 04:29:45;;;;;;;0.40;0.30;;;3.70;99.90;;;;;;5034582;28;20577;-79
2023/11/28 04:32:12;;;;;;;0.30;0.30;;;3.60;99.90;;;;;;5033941;28;20467;-79
2023/11/28 04:34:39;;;;;;;0.30;0.20;;;3.60;99.90;;;;;;5033868;28;20439;-79
2023/11/28 04:37:06;;;;;;;0.30;0.20;;;3.70;99.90;;;;;;5033926;28;20812;-79
2023/11/28 04:39:32;;;;;;;0.30;0.20;;;3.70;99.90;;;;;;5033659;28;20446;-79
2023/11/28 04:41:59;;;;;;;0.30;0.20;;;3.80;99.90;;;;;;5033359;28;20483;-79
2023/11/28 04:44:27;;;;;;;0.30;0.30;;;3.70;99.90;;;;;;5033820;28;20435;-79
2023/11/28 04:46:54;;;;;;;0.30;0.30;;;3.70;99.90;;;;;;5033591;28;20438;-79
2023/11/28 04:49:23;;;;;;;0.50;0.40;;;3.80;99.90;;;;;;5033691;28;20439;-79
2023/11/28 04:51:50;;;;;;;0.30;0.20;;;3.80;99.90;;;;;;5033500;28;20470;-79
2023/11/28 04:54:17;;;;;;;0.30;0.20;;;3.80;99.90;;;;;;5033625;28;20443;-79
2023/11/28 04:56:43;;;;;;;0.30;0.20;;;3.80;99.90;;;;;;5033522;28;20454;-79
2023/11/28 04:59:10;;;;;;;0.30;0.30;;;3.80;99.90;;;;;;5033659;28;20447;-79
2023/11/28 05:01:44;;;;;;;0.30;0.30;;;3.80;99.90;;;;;;5033419;28;20459;-80
2023/11/28 05:04:11;;;;;;;0.30;0.20;;;3.80;99.90;;;;;;5033555;28;20427;-80
2023/11/28 05:06:38;;;;;;;0.30;0.20;;;3.80;99.90;;;;;;5033390;28;20447;-79
2023/11/28 05:09:06;;;;;;;0.30;0.20;;;3.80;99.90;;;;;;5033509;28;20451;-79
2023/11/28 05:11:32;;;;;;;0.30;0.20;;;3.80;99.90;;;;;;5033265;28;20975;-79
2023/11/28 05:13:59;;;;;;;0.30;0.20;;;3.80;99.90;;;;;;5033356;28;20446;-79
2023/11/28 05:16:26;;;;;;;0.30;0.20;;;3.80;99.90;;;;;;5033284;28;20450;-79
2023/11/28 05:18:54;;;;;;;0.30;0.20;;;3.90;99.90;;;;;;5033270;28;20821;-79
2023/11/28 05:21:22;;;;;;;0.30;0.23;;;3.90;99.90;;;;;;5036678;28;20473;-79
2023/11/28 05:23:48;;;;;;;0.30;0.20;;;3.80;99.90;;;;;;5037287;28;20449;-79
2023/11/28 05:26:15;;;;;;;0.30;0.20;;;3.90;99.90;;;;;;5037334;28;20832;-79
2023/11/28 05:28:42;;;;;;;0.30;0.20;;;3.90;99.90;;;;;;5037224;28;20786;-79
2023/11/28 05:31:09;;;;;;;0.33;0.27;;;3.80;99.90;;;;;;5036853;28;21021;-79
2023/11/28 05:33:36;;;;;;;0.30;0.30;;;3.90;99.90;;;;;;5037190;28;20474;-79
2023/11/28 05:36:06;;;;;;;0.30;0.20;;;3.90;99.90;;;;;;5037151;28;20442;-79
2023/11/28 05:38:32;;;;;;;0.30;0.30;;;3.90;99.90;;;;;;5037075;28;20462;-79
2023/11/28 05:41:00;;;;;;;0.30;0.20;;;3.90;99.90;;;;;;5038038;28;20478;-79
2023/11/28 05:43:29;;;;;;;0.30;0.23;;;3.90;99.90;;;;;;5036668;28;20935;-79
2023/11/28 05:45:56;;;;;;;0.30;0.30;;;3.90;99.90;;;;;;5036533;28;20450;-79
2023/11/28 05:48:23;;;;;;;1.43;0.30;;;3.90;99.90;;;;;;5036801;28;20445;-79
2023/11/28 05:50:50;;;;;;;0.40;0.30;;;3.90;99.90;;;;;;5036591;28;20482;-79
2023/11/28 05:53:19;;;;;;;0.30;0.30;;;3.90;99.90;;;;;;5036788;28;20476;-79
2023/11/28 05:55:46;;;;;;;0.30;0.20;;;3.90;99.90;;;;;;5036672;28;20462;-79
2023/11/28 05:58:13;;;;;;;0.47;0.47;;;4.00;99.90;;;;;;5036845;28;20434;-79
2023/11/28 06:00:41;;;;;;;0.30;0.20;;;4.00;99.90;;;;;;5036744;28;20463;-79
2023/11/28 06:03:08;;;;;;;0.40;0.30;;;4.00;99.90;;;;;;5036542;28;20458;-79
2023/11/28 06:05:35;;;;;;;0.40;0.40;;;4.00;99.90;;;;;;5036297;28;20446;-80
2023/11/28 06:08:02;;;;;;;0.30;0.30;;;4.00;99.90;;;;;;5036350;28;21026;-80
2023/11/28 06:10:30;;;;;;;0.30;0.23;;;4.00;99.90;;;;;;5036354;28;20851;-79
2023/11/28 06:12:57;;;;;;;0.40;0.30;;;4.00;99.90;;;;;;5036306;28;20453;-79
2023/11/28 06:15:25;;;;;;;0.30;0.27;;;3.90;99.90;;;;;;5036446;28;20443;-79
2023/11/28 06:17:52;;;;;;;0.50;0.30;;;4.00;99.90;;;;;;5036537;28;20458;-79
2023/11/28 06:20:20;;;;;;;0.30;0.30;;;4.00;99.90;;;;;;5036137;28;20465;-79
2023/11/28 06:22:47;;;;;;;0.50;0.30;;;4.00;99.90;;;;;;5036262;28;20447;-79
2023/11/28 06:25:14;;;;;;;0.40;0.30;;;4.00;99.90;;;;;;5036192;28;20826;-79
2023/11/28 06:27:42;;;;;;;1.70;0.40;;;3.90;99.90;;;;;;5036051;28;20449;-79
2023/11/28 06:30:10;;;;;;;0.30;0.20;;;3.90;99.90;;;;;;5035736;28;20475;-79
2023/11/28 06:32:37;;;;;;;0.40;0.33;;;3.80;99.90;;;;;;5035115;28;20497;-79
2023/11/28 06:35:05;;;;;;;0.30;0.30;;;3.80;99.90;;;;;;5036000;28;20443;-79
2023/11/28 06:37:32;;;;;;;0.93;0.57;;;3.70;99.90;;;;;;5035958;28;20877;-79
2023/11/28 06:39:59;;;;;;;2.70;0.50;;;3.60;99.90;;;;;;5037211;28;20541;-80
2023/11/28 06:42:25;;;;;;;0.50;0.40;;;3.60;99.90;;;;;;5037142;28;20433;-79
2023/11/28 06:44:53;;;;;;;0.30;0.30;;;3.60;99.90;;;;;;5035854;28;20449;-79
2023/11/28 06:47:20;;;;;;;0.57;0.47;;;3.60;99.90;;;;;;5035695;28;20482;-79
2023/11/28 06:49:48;;;;;;;0.43;0.43;;;3.60;99.90;;;;;;5035738;28;20466;-79
2023/11/28 06:52:15;;;;;;;0.30;0.30;;;3.60;99.90;;;;;;5035311;28;20612;-79
2023/11/28 06:54:42;;;;;;;0.40;0.40;;;3.50;99.90;;;;;;5035400;28;20958;-79
2023/11/28 06:57:09;;;;;;;0.30;0.20;;;3.50;99.90;;;;;;5035549;28;20447;-79
2023/11/28 06:59:36;;;;;;;0.30;0.30;;;3.50;99.90;;;;;;5035443;28;20455;-79
2023/11/28 07:02:05;;;;;;;0.40;0.33;;;3.50;99.90;;;;;;5035499;28;20459;-79
2023/11/28 07:04:32;;;;;;;0.40;0.30;;;3.50;99.90;;;;;;5035647;28;20817;-79
2023/11/28 07:06:59;;;;;;;0.63;0.30;;;3.40;99.90;;;;;;5035407;28;20454;-79
2023/11/28 07:09:26;;;;;;;0.30;0.30;;;3.40;99.90;;;;;;5035989;28;20482;-79
2023/11/28 07:11:53;;;;;;;0.37;0.30;;;3.30;99.90;;;;;;5035708;28;20491;-79
2023/11/28 07:14:21;;;;;;;0.30;0.30;;;3.20;99.90;;;;;;5036552;28;20442;-80
2023/11/28 07:16:48;;;;;;;0.30;0.30;;;3.10;99.90;;;;;;5038513;28;20443;-79
2023/11/28 07:19:16;;;;;;;0.30;0.30;;;3.10;99.90;;;;;;5035813;28;20943;-80
2023/11/28 07:21:43;;;;;;;0.90;0.50;;;3.00;99.90;;;;;;5035356;28;20459;-79
2023/11/28 07:24:10;;;;;;;0.30;0.30;;;3.00;99.90;;;;;;5035482;28;20439;-79
2023/11/28 07:26:36;;;;;;;0.40;0.40;;;2.90;99.90;;;;;;5035126;28;20439;-79
2023/11/28 07:29:03;;;;;;;0.33;0.33;;;2.90;99.90;;;;;;5035296;28;20449;-79
2023/11/28 07:31:30;;;;;;;0.40;0.30;;;2.90;99.90;;;;;;5034981;28;20478;-79
2023/11/28 07:33:56;;;;;;;0.40;0.37;;;2.80;99.90;;;;;;5035101;28;20451;-79
2023/11/28 07:36:24;;;;;;;0.40;0.40;;;2.70;99.90;;;;;;5034893;28;20980;-79
2023/11/28 07:38:51;;;;;;;0.37;0.30;;;2.70;99.90;;;;;;5034864;28;20235;-79
2023/11/28 07:41:18;;;;;;;0.30;0.30;;;2.70;99.90;;;;;;5034812;28;20569;-80
2023/11/28 07:43:45;;;;;;;0.50;0.50;;;2.60;99.90;;;;;;5034552;28;20442;-79
2023/11/28 07:46:12;;;;;;;0.40;0.30;;;2.60;99.90;;;;;;5034822;28;20443;-79
2023/11/28 07:48:38;;;;;;;0.30;0.30;;;2.60;99.90;;;;;;5034831;28;20443;-79
2023/11/28 07:51:06;;;;;;;0.30;0.20;;;2.40;99.90;;;;;;5034336;28;20482;-79
2023/11/28 07:53:34;;;;;;;0.40;0.30;;;2.40;99.90;;;;;;5034493;28;20447;-79
2023/11/28 07:56:01;;;;;;;0.30;0.30;;;2.40;99.90;;;;;;5034512;28;20443;-79
2023/11/28 07:58:28;;;;;;;7.03;0.50;;;2.40;99.90;;;;;;5034417;28;20439;-79
2023/11/28 08:00:54;;;;;;;0.70;0.43;;;2.40;99.90;;;;;;5035178;28;20467;-79
2023/11/28 08:03:22;;;;;;;0.40;0.40;;;2.30;99.90;;;;;;5034239;28;20438;-79
2023/11/28 08:05:48;;;;;;;0.30;0.30;;;2.20;99.90;;;;;;5034334;28;20494;-79
2023/11/28 08:08:16;;;;;;;0.30;0.30;;;2.20;99.90;;;;;;5033953;28;20450;-79
2023/11/28 08:10:44;;;;;;;0.30;0.27;;;2.20;99.90;;;;;;5033858;28;20532;-79
2023/11/28 08:13:15;;;;;;;0.40;0.33;;;2.20;99.90;;;;;;5033879;28;21025;-79
2023/11/28 08:15:42;;;;;;;0.40;0.40;;;2.30;99.90;;;;;;5041607;28;20517;-79
2023/11/28 08:18:08;;;;;;;1.23;0.40;;;2.30;99.90;;;;;;5034044;28;20500;-79
2023/11/28 08:20:35;;;;;;;0.40;0.40;;;2.20;99.90;;;;;;5033553;28;20472;-79
2023/11/28 08:23:02;;;;;;;0.30;0.30;;;2.20;99.90;;;;;;5034021;28;20442;-79
2023/11/28 08:25:29;;;;;;;0.40;0.33;;;2.10;99.90;;;;;;5034064;28;20569;-79
2023/11/28 08:27:57;;;;;;;0.40;0.30;;;2.10;99.90;;;;;;5033985;28;20450;-79
2023/11/28 08:30:24;;;;;;;0.73;0.37;;;2.10;99.90;;;;;;5033497;28;20467;-79
2023/11/28 08:32:51;;;;;;;0.30;0.30;;;2.00;99.90;;;;;;5033942;28;20447;-79
2023/11/28 08:35:18;;;;;;;0.30;0.30;;;2.00;99.90;;;;;;5033906;28;20833;-79
2023/11/28 08:37:44;;;;;;;0.40;0.40;;;2.00;99.90;;;;;;5033969;28;20438;-79
2023/11/28 08:40:12;;;;;;;0.40;0.40;;;2.00;99.90;;;;;;5035335;28;20815;-79
2023/11/28 08:42:39;;;;;;;0.30;0.30;;;2.00;99.90;;;;;;5033432;28;20434;-79
2023/11/28 08:45:09;;;;;;;0.50;0.50;;;2.00;99.90;;;;;;5033440;28;20943;-79
2023/11/28 08:47:36;;;;;;;0.40;0.40;;;2.00;99.90;;;;;;5033922;28;20442;-79
2023/11/28 08:50:03;;;;;;;0.40;0.40;;;2.00;99.90;;;;;;5033371;28;20449;-79
2023/11/28 08:52:31;;;;;;;0.30;0.30;;;2.00;99.90;;;;;;5033798;28;20485;-79
2023/11/28 08:54:57;;;;;;;0.30;0.30;;;1.90;99.90;;;;;;5034806;28;20445;-80
2023/11/28 08:57:26;;;;;;;0.40;0.40;;;1.90;99.90;;;;;;5034186;28;20865;-79
2023/11/28 08:59:53;;;;;;;0.30;0.20;;;1.90;99.90;;;;;;5033696;28;20446;-79
2023/11/28 09:02:21;;;;;;;1.43;0.53;;;2.00;99.90;;;;;;5033550;28;20435;-79
2023/11/28 09:04:48;;;;;;;0.50;0.43;;;1.90;99.90;;;;;;5033189;28;20935;-79
2023/11/28 09:07:15;;;;;;;0.37;0.30;;;2.00;99.90;;;;;;5033388;28;20809;-79
2023/11/28 09:09:42;;;;;;;2.47;0.53;;;2.00;99.90;;;;;;5033645;28;20482;-79
2023/11/28 09:12:09;;;;;;;0.30;0.30;;;2.00;99.90;;;;;;5033378;28;20857;-79
2023/11/28 09:14:35;;;;;;;0.40;0.40;;;2.00;99.90;;;;;;5033405;28;20443;-79
2023/11/28 09:17:02;;;;;;;0.40;0.30;;;2.00;99.90;;;;;;5033025;28;20927;-79
2023/11/28 09:19:30;;;;;;;0.40;0.40;;;2.00;99.90;;;;;;5033366;28;20427;-79
2023/11/28 09:21:57;;;;;;;0.30;0.20;;;2.00;99.90;;;;;;5033052;28;20461;-79
2023/11/28 09:24:24;;;;;;;0.30;0.30;;;1.90;99.90;;;;;;5033387;28;20438;-79
2023/11/28 09:27:17;;;;;;;0.30;0.30;;;1.90;99.90;;;;;;5035841;28;20453;-80
2023/11/28 09:29:44;;;;;;;0.30;0.30;;;1.90;99.90;;;;;;5036478;28;20463;-79
2023/11/28 09:32:12;;;;;;;0.50;0.30;;;1.90;99.90;;;;;;5033699;28;20494;-79
2023/11/28 09:34:43;;;;;;;0.37;0.33;;;2.00;99.90;;;;;;5033818;28;20479;-79
2023/11/28 09:37:09;;;;;;;0.30;0.20;;;2.00;99.90;;;;;;5033214;28;20419;-79
2023/11/28 09:39:36;;;;;;;0.30;0.20;;;2.10;99.90;;;;;;5032762;28;20453;-79
2023/11/28 09:42:06;;;;;;;0.40;0.30;;;2.10;99.90;;;;;;5032943;28;20470;-79
2023/11/28 09:44:35;;;;;;;0.30;0.30;;;2.10;99.90;;;;;;5042293;28;20439;-80
2023/11/28 09:47:07;;;;;;;0.30;0.30;;;2.10;99.90;;;;;;5033853;28;20967;-80
2023/11/28 09:49:39;;;;;;;0.33;0.30;;;2.10;99.90;;;;;;5035077;28;20431;-79
2023/11/28 09:52:08;;;;;;;0.30;0.20;;;2.10;99.90;;;;;;5033103;28;20987;-79
2023/11/28 09:54:37;;;;;;;0.30;0.30;;;2.20;99.90;;;;;;5032774;28;20961;-79
2023/11/28 09:57:05;;;;;;;0.30;0.20;;;2.20;99.90;;;;;;5033169;28;20801;-79
2023/11/28 09:59:32;;;;;;;0.30;0.30;;;2.00;99.90;;;;;;5033078;28;20438;-79
2023/11/28 10:02:02;;;;;;;0.30;0.30;;;2.00;99.90;;;;;;5032868;28;20457;-79
2023/11/28 10:04:29;;;;;;;0.30;0.30;;;2.00;99.90;;;;;;5032800;28;20423;-79
2023/11/28 10:07:01;;;;;;;0.70;0.40;;;2.00;99.90;;;;;;5035449;28;20450;-79
2023/11/28 10:09:32;;;;;;;0.30;0.30;;;2.00;99.90;;;;;;5036282;28;20981;-79
2023/11/28 10:11:59;;;;;;;0.70;0.70;;;2.10;99.90;;;;;;5036243;28;20859;-79
2023/11/28 10:14:27;;;;;;;0.30;0.30;;;2.00;99.90;;;;;;5036442;28;20534;-79
2023/11/28 10:16:54;;;;;;;0.30;0.30;;;2.00;99.90;;;;;;5036105;28;20935;-79
2023/11/28 10:19:21;;;;;;;0.40;0.30;;;2.00;99.90;;;;;;5036296;28;20447;-79
2023/11/28 10:21:49;;;;;;;0.30;0.30;;;2.10;99.90;;;;;;5035878;28;20463;-79
2023/11/28 10:24:16;;;;;;;0.37;0.33;;;2.00;99.90;;;;;;5035850;28;20998;-79
2023/11/28 10:26:45;;;;;;;0.30;0.30;;;2.00;99.90;;;;;;5035882;28;20963;-79
2023/11/28 10:29:12;;;;;;;0.40;0.40;;;2.00;99.90;;;;;;5036100;28;20450;-79
2023/11/28 10:31:40;;;;;;;0.30;0.20;;;1.90;99.90;;;;;;5037586;28;20482;-79
2023/11/28 10:34:09;;;;;;;0.40;0.40;;;1.90;99.90;;;;;;5036110;28;20451;-79
2023/11/28 10:36:40;;;;;;;0.30;0.30;;;1.90;99.90;;;;;;5035971;28;20481;-79
2023/11/28 10:39:08;;;;;;;0.50;0.40;;;2.00;99.90;;;;;;5035609;28;20939;-79
2023/11/28 10:41:35;;;;;;;0.43;0.33;;;1.90;99.90;;;;;;5035804;28;20540;-79
2023/11/28 10:44:04;;;;;;;0.40;0.40;;;1.90;99.90;;;;;;5035872;28;20476;-79
2023/11/28 10:46:34;;;;;;;0.40;0.40;;;1.90;99.90;;;;;;5035928;28;20461;-79
2023/11/28 10:49:01;;;;;;;0.40;0.30;;;1.80;99.90;;;;;;5036686;28;20423;-79
2023/11/28 10:51:30;;;;;;;0.40;0.40;;;1.90;99.90;;;;;;5035755;28;20525;-79
2023/11/28 10:54:07;;;;;;;0.40;0.30;;;1.90;99.90;;;;;;5035488;28;20453;-79
2023/11/28 10:56:45;;;;;;;0.97;0.53;;;1.90;99.90;;;;;;5035916;28;20489;-79
2023/11/28 10:59:21;;;;;;;1.00;0.90;;;1.90;99.90;;;;;;5036641;28;20419;-80
2023/11/28 11:01:48;;;;;;;1.13;0.53;;;1.90;99.90;;;;;;5037415;28;20463;-80
2023/11/28 11:04:16;;;;;;;0.40;0.40;;;1.80;99.90;;;;;;5035827;28;20458;-80
2023/11/28 11:06:43;;;;;;;0.50;0.50;;;1.70;99.90;;;;;;5035965;28;20450;-79
2023/11/28 11:09:12;;;;;;;0.30;0.30;;;1.70;99.90;;;;;;5039083;28;20900;-79
2023/11/28 11:11:40;;;;;;;0.30;0.30;;;1.70;99.90;;;;;;5036919;28;20532;-79
2023/11/28 11:14:18;;;;;;;0.77;0.40;;;1.80;99.90;;;;;;5037466;28;20454;-79
2023/11/28 11:16:54;;;;;;;0.40;0.40;;;1.80;99.90;;;;;;5035438;28;20435;-79
2023/11/28 11:19:22;;;;;;;1.27;0.57;;;1.90;99.90;;;;;;5035013;28;20434;-80
2023/11/28 11:21:55;;;;;;;0.40;0.40;;;1.80;99.90;;;;;;5035533;28;20462;-79
2023/11/28 11:24:21;;;;;;;1.70;0.50;;;1.80;99.90;;;;;;5035348;28;20419;-79
2023/11/28 11:26:49;;;;;;;0.37;0.30;;;1.80;99.90;;;;;;5036848;28;20446;-79
2023/11/28 11:29:37;;;;;;;0.87;0.70;;;1.80;99.90;;;;;;5037238;28;20454;-79
2023/11/28 11:32:07;;;;;;;0.60;0.43;;;1.80;99.90;;;;;;5036407;28;20575;-79
2023/11/28 11:34:35;;;;;;;0.30;0.30;;;1.70;99.90;;;;;;5037066;28;20505;-79
2023/11/28 11:37:09;;;;;;;1.13;0.47;;;1.80;99.90;;;;;;5036703;28;20501;-79
2023/11/28 11:39:37;;;;;;;1.10;1.00;;;1.70;99.90;;;;;;5035512;28;20446;-80
2023/11/28 11:42:04;;;;;;;0.43;0.43;;;1.70;99.90;;;;;;5035689;28;20565;-79
2023/11/28 11:44:34;;;;;;;0.40;0.30;;;1.80;99.90;;;;;;5035711;28;20419;-80
2023/11/28 11:47:14;;;;;;;0.40;0.40;;;1.70;99.90;;;;;;5034816;28;20445;-80
2023/11/28 11:49:44;;;;;;;0.60;0.60;;;1.80;99.90;;;;;;5034748;28;20438;-80
2023/11/28 11:52:11;;;;;;;0.70;0.70;;;1.80;99.90;;;;;;5034573;28;20585;-80
2023/11/28 11:54:38;;;;;;;0.30;0.30;;;1.80;99.90;;;;;;5034287;28;20970;-80
2023/11/28 11:57:05;;;;;;;0.40;0.40;;;1.70;99.90;;;;;;5034290;28;20969;-80
2023/11/28 11:59:33;;;;;;;0.30;0.30;;;1.70;99.90;;;;;;5034524;28;20443;-80
2023/11/28 12:02:01;;;;;;;0.40;0.40;;;1.70;99.90;;;;;;5034356;28;20473;-80
2023/11/28 12:04:28;;;;;;;0.60;0.60;;;1.70;99.90;;;;;;5035391;28;20884;-80
2023/11/28 12:07:06;;;;;;;0.60;0.60;;;1.70;99.90;;;;;;5034120;28;20453;-80
2023/11/28 12:09:33;;;;;;;0.43;0.33;;;1.70;99.90;;;;;;5034748;28;20450;-80
2023/11/28 12:12:00;;;;;;;0.97;0.97;;;1.70;99.90;;;;;;5034074;28;20482;-80
2023/11/28 12:14:27;;;;;;;1.53;0.70;;;1.80;99.90;;;;;;5034296;28;20482;-80
2023/11/28 12:16:56;;;;;;;0.57;0.57;;;1.70;99.90;;;;;;5034156;28;20457;-80
2023/11/28 12:19:23;;;;;;;2.03;0.80;;;1.70;99.90;;;;;;5037242;28;20443;-80
2023/11/28 12:21:50;;;;;;;0.50;0.43;;;1.70;99.90;;;;;;5040158;28;20459;-79
2023/11/28 12:24:17;;;;;;;0.50;0.50;;;1.70;99.90;;;;;;5036705;28;20948;-79
2023/11/28 12:26:43;;;;;;;0.63;0.60;;;1.70;99.90;;;;;;5036168;28;20935;-79
2023/11/28 12:29:12;;;;;;;0.53;0.47;;;1.70;99.90;;;;;;5036957;28;20451;-80
2023/11/28 12:31:39;;;;;;;0.30;0.30;;;1.70;99.90;;;;;;5038251;28;20477;-80
2023/11/28 12:34:07;;;;;;;0.70;0.70;;;1.70;99.90;;;;;;5037195;28;20442;-79
2023/11/28 12:36:34;;;;;;;0.30;0.30;;;1.70;99.90;;;;;;5035967;28;20831;-80
2023/11/28 12:39:03;;;;;;;0.60;0.53;;;1.70;99.90;;;;;;5035207;28;20450;-80
2023/11/28 12:41:38;;;;;;;0.90;0.73;;;1.70;99.90;;;;;;5034288;28;20489;-80
2023/11/28 12:44:08;;;;;;;0.50;0.50;;;1.70;99.90;;;;;;5034587;28;20484;-80
2023/11/28 12:46:37;;;;;;;0.50;0.50;;;1.60;99.90;;;;;;5035649;28;20446;-80
2023/11/28 12:49:05;;;;;;;0.40;0.30;;;1.60;99.90;;;;;;5035898;28;20443;-79
2023/11/28 12:51:33;;;;;;;0.70;0.70;;;1.60;99.90;;;;;;5036009;28;20983;-80
2023/11/28 12:54:07;;;;;;;0.93;0.50;;;1.60;99.90;;;;;;5038922;28;20490;-80
2023/11/28 12:56:35;;;;;;;0.30;0.30;;;1.60;99.90;;;;;;5034668;28;20442;-80
2023/11/28 12:59:02;;;;;;;0.80;0.50;;;1.60;99.90;;;;;;5034535;28;20497;-80
2023/11/28 13:01:30;;;;;;;1.00;1.00;;;1.60;99.90;;;;;;5034087;28;20550;-80